sensor_id;sensor_type;location;lat;lon;timestamp;P1;durP1;ratioP1;P2;durP2;ratioP2
25123;SDS011;13104;51.030;4.686;2022-12-29T00:02:13;2.60;;;1.80;;
25123;SDS011;13104;51.030;4.686;2022-12-29T00:04:39;1.60;;;1.48;;
25123;SDS011;13104;51.030;4.686;2022-12-29T00:07:06;2.05;;;1.40;;
25123;SDS011;13104;51.030;4.686;2022-12-29T00:09:32;2.88;;;1.50;;
25123;SDS011;13104;51.030;4.686;2022-12-29T00:11:59;2.13;;;1.30;;
25123;SDS011;13104;51.030;4.686;2022-12-29T00:14:26;6.78;;;1.60;;
25123;SDS011;13104;51.030;4.686;2022-12-29T00:17:11;2.15;;;1.30;;
25123;SDS011;13104;51.030;4.686;2022-12-29T00:19:37;2.38;;;1.17;;
25123;SDS011;13104;51.030;4.686;2022-12-29T00:22:22;3.20;;;1.30;;
25123;SDS011;13104;51.030;4.686;2022-12-29T00:25:07;1.95;;;0.90;;
25123;SDS011;13104;51.030;4.686;2022-12-29T00:27:34;2.40;;;1.15;;
25123;SDS011;13104;51.030;4.686;2022-12-29T00:30:22;2.15;;;1.40;;
25123;SDS011;13104;51.030;4.686;2022-12-29T00:33:11;1.65;;;1.00;;
25123;SDS011;13104;51.030;4.686;2022-12-29T00:35:57;2.03;;;1.10;;
25123;SDS011;13104;51.030;4.686;2022-12-29T00:38:26;2.92;;;1.20;;
25123;SDS011;13104;51.030;4.686;2022-12-29T00:41:11;2.47;;;1.10;;
25123;SDS011;13104;51.030;4.686;2022-12-29T00:43:55;3.20;;;1.30;;
25123;SDS011;13104;51.030;4.686;2022-12-29T00:46:31;3.05;;;1.20;;
25123;SDS011;13104;51.030;4.686;2022-12-29T00:48:57;2.88;;;0.93;;
25123;SDS011;13104;51.030;4.686;2022-12-29T00:51:42;1.70;;;0.98;;
25123;SDS011;13104;51.030;4.686;2022-12-29T00:54:08;3.45;;;1.15;;
25123;SDS011;13104;51.030;4.686;2022-12-29T00:56:34;1.77;;;1.10;;
25123;SDS011;13104;51.030;4.686;2022-12-29T00:59:01;2.95;;;1.20;;
25123;SDS011;13104;51.030;4.686;2022-12-29T01:01:27;3.25;;;1.27;;
25123;SDS011;13104;51.030;4.686;2022-12-29T01:03:53;4.93;;;1.67;;
25123;SDS011;13104;51.030;4.686;2022-12-29T01:06:20;5.28;;;1.45;;
25123;SDS011;13104;51.030;4.686;2022-12-29T01:08:46;3.17;;;1.40;;
25123;SDS011;13104;51.030;4.686;2022-12-29T01:11:32;5.43;;;1.40;;
25123;SDS011;13104;51.030;4.686;2022-12-29T01:13:58;2.47;;;1.30;;
25123;SDS011;13104;51.030;4.686;2022-12-29T01:16:24;5.22;;;1.58;;
25123;SDS011;13104;51.030;4.686;2022-12-29T01:18:50;6.78;;;1.20;;
25123;SDS011;13104;51.030;4.686;2022-12-29T01:21:16;3.97;;;1.42;;
25123;SDS011;13104;51.030;4.686;2022-12-29T01:23:42;3.67;;;1.08;;
25123;SDS011;13104;51.030;4.686;2022-12-29T01:26:09;5.72;;;1.20;;
25123;SDS011;13104;51.030;4.686;2022-12-29T01:28:35;5.35;;;1.42;;
25123;SDS011;13104;51.030;4.686;2022-12-29T01:31:05;5.45;;;1.30;;
25123;SDS011;13104;51.030;4.686;2022-12-29T01:33:31;7.20;;;1.52;;
25123;SDS011;13104;51.030;4.686;2022-12-29T01:36:01;3.60;;;0.98;;
25123;SDS011;13104;51.030;4.686;2022-12-29T01:38:27;3.85;;;1.20;;
25123;SDS011;13104;51.030;4.686;2022-12-29T01:40:54;4.88;;;1.90;;
25123;SDS011;13104;51.030;4.686;2022-12-29T01:43:20;3.33;;;1.40;;
25123;SDS011;13104;51.030;4.686;2022-12-29T01:45:50;5.45;;;1.42;;
25123;SDS011;13104;51.030;4.686;2022-12-29T01:48:17;4.35;;;1.33;;
25123;SDS011;13104;51.030;4.686;2022-12-29T01:50:50;7.60;;;1.83;;
25123;SDS011;13104;51.030;4.686;2022-12-29T01:53:18;2.40;;;1.35;;
25123;SDS011;13104;51.030;4.686;2022-12-29T01:55:47;5.47;;;1.23;;
25123;SDS011;13104;51.030;4.686;2022-12-29T01:58:14;2.92;;;1.20;;
25123;SDS011;13104;51.030;4.686;2022-12-29T02:00:41;4.32;;;1.38;;
25123;SDS011;13104;51.030;4.686;2022-12-29T02:03:07;2.78;;;1.10;;
25123;SDS011;13104;51.030;4.686;2022-12-29T02:05:36;5.05;;;1.05;;
25123;SDS011;13104;51.030;4.686;2022-12-29T02:08:04;4.57;;;1.30;;
25123;SDS011;13104;51.030;4.686;2022-12-29T02:10:31;3.03;;;1.00;;
25123;SDS011;13104;51.030;4.686;2022-12-29T02:12:59;3.50;;;1.50;;
25123;SDS011;13104;51.030;4.686;2022-12-29T02:15:29;4.57;;;1.00;;
25123;SDS011;13104;51.030;4.686;2022-12-29T02:33:21;3.30;;;1.30;;
25123;SDS011;13104;51.030;4.686;2022-12-29T02:35:52;4.20;;;1.13;;
25123;SDS011;13104;51.030;4.686;2022-12-29T02:40:48;4.15;;;1.30;;
25123;SDS011;13104;51.030;4.686;2022-12-29T02:45:47;5.13;;;1.20;;
25123;SDS011;13104;51.030;4.686;2022-12-29T02:48:18;4.78;;;1.08;;
25123;SDS011;13104;51.030;4.686;2022-12-29T02:51:06;3.10;;;1.15;;
25123;SDS011;13104;51.030;4.686;2022-12-29T02:53:33;3.40;;;1.35;;
25123;SDS011;13104;51.030;4.686;2022-12-29T02:56:19;6.00;;;1.40;;
25123;SDS011;13104;51.030;4.686;2022-12-29T02:58:45;5.07;;;1.20;;
25123;SDS011;13104;51.030;4.686;2022-12-29T03:03:55;6.55;;;1.30;;
25123;SDS011;13104;51.030;4.686;2022-12-29T03:09:00;5.00;;;1.25;;
25123;SDS011;13104;51.030;4.686;2022-12-29T03:11:32;2.80;;;0.77;;
25123;SDS011;13104;51.030;4.686;2022-12-29T03:14:29;5.20;;;0.68;;
25123;SDS011;13104;51.030;4.686;2022-12-29T03:17:24;2.53;;;0.90;;
25123;SDS011;13104;51.030;4.686;2022-12-29T03:19:52;5.20;;;0.90;;
25123;SDS011;13104;51.030;4.686;2022-12-29T03:22:22;3.03;;;0.70;;
25123;SDS011;13104;51.030;4.686;2022-12-29T03:25:00;5.72;;;1.80;;
25123;SDS011;13104;51.030;4.686;2022-12-29T03:27:31;6.53;;;1.15;;
25123;SDS011;13104;51.030;4.686;2022-12-29T03:30:01;7.15;;;1.10;;
25123;SDS011;13104;51.030;4.686;2022-12-29T03:32:30;8.73;;;1.73;;
25123;SDS011;13104;51.030;4.686;2022-12-29T03:34:57;5.60;;;1.20;;
25123;SDS011;13104;51.030;4.686;2022-12-29T03:37:34;7.05;;;1.23;;
25123;SDS011;13104;51.030;4.686;2022-12-29T03:40:01;7.43;;;1.45;;
25123;SDS011;13104;51.030;4.686;2022-12-29T03:42:28;6.32;;;1.65;;
25123;SDS011;13104;51.030;4.686;2022-12-29T03:44:57;7.68;;;1.75;;
25123;SDS011;13104;51.030;4.686;2022-12-29T03:47:23;7.25;;;1.63;;
25123;SDS011;13104;51.030;4.686;2022-12-29T03:49:50;8.25;;;1.50;;
25123;SDS011;13104;51.030;4.686;2022-12-29T03:52:16;10.10;;;1.90;;
25123;SDS011;13104;51.030;4.686;2022-12-29T03:54:42;11.13;;;1.70;;
25123;SDS011;13104;51.030;4.686;2022-12-29T03:57:09;7.53;;;1.40;;
25123;SDS011;13104;51.030;4.686;2022-12-29T03:59:35;13.40;;;1.73;;
25123;SDS011;13104;51.030;4.686;2022-12-29T04:02:02;9.52;;;1.60;;
25123;SDS011;13104;51.030;4.686;2022-12-29T04:04:28;5.00;;;1.20;;
25123;SDS011;13104;51.030;4.686;2022-12-29T04:06:54;5.43;;;1.13;;
25123;SDS011;13104;51.030;4.686;2022-12-29T04:09:20;2.65;;;0.80;;
25123;SDS011;13104;51.030;4.686;2022-12-29T04:11:46;5.60;;;1.00;;
25123;SDS011;13104;51.030;4.686;2022-12-29T04:14:13;5.40;;;1.23;;
25123;SDS011;13104;51.030;4.686;2022-12-29T04:16:39;4.15;;;0.90;;
25123;SDS011;13104;51.030;4.686;2022-12-29T04:19:05;3.50;;;1.17;;
25123;SDS011;13104;51.030;4.686;2022-12-29T04:21:32;2.70;;;0.88;;
25123;SDS011;13104;51.030;4.686;2022-12-29T04:23:59;4.30;;;1.13;;
25123;SDS011;13104;51.030;4.686;2022-12-29T04:26:25;7.38;;;1.42;;
25123;SDS011;13104;51.030;4.686;2022-12-29T04:28:51;8.57;;;1.60;;
25123;SDS011;13104;51.030;4.686;2022-12-29T04:31:17;3.88;;;1.05;;
25123;SDS011;13104;51.030;4.686;2022-12-29T04:33:43;4.18;;;0.90;;
25123;SDS011;13104;51.030;4.686;2022-12-29T04:36:10;5.38;;;1.50;;
25123;SDS011;13104;51.030;4.686;2022-12-29T04:38:36;8.38;;;1.77;;
25123;SDS011;13104;51.030;4.686;2022-12-29T04:41:02;6.60;;;1.60;;
25123;SDS011;13104;51.030;4.686;2022-12-29T04:43:28;5.88;;;1.50;;
25123;SDS011;13104;51.030;4.686;2022-12-29T04:45:54;12.50;;;1.55;;
25123;SDS011;13104;51.030;4.686;2022-12-29T04:48:20;6.40;;;1.70;;
25123;SDS011;13104;51.030;4.686;2022-12-29T04:50:47;7.90;;;1.40;;
25123;SDS011;13104;51.030;4.686;2022-12-29T04:53:14;5.72;;;1.25;;
25123;SDS011;13104;51.030;4.686;2022-12-29T04:55:41;5.97;;;1.33;;
25123;SDS011;13104;51.030;4.686;2022-12-29T04:58:07;4.40;;;1.27;;
25123;SDS011;13104;51.030;4.686;2022-12-29T05:00:33;7.55;;;1.40;;
25123;SDS011;13104;51.030;4.686;2022-12-29T05:02:59;8.45;;;1.20;;
25123;SDS011;13104;51.030;4.686;2022-12-29T05:05:26;8.90;;;1.38;;
25123;SDS011;13104;51.030;4.686;2022-12-29T05:07:52;6.53;;;1.15;;
25123;SDS011;13104;51.030;4.686;2022-12-29T05:10:18;5.03;;;1.00;;
25123;SDS011;13104;51.030;4.686;2022-12-29T05:12:44;7.95;;;1.55;;
25123;SDS011;13104;51.030;4.686;2022-12-29T05:15:10;4.78;;;1.65;;
25123;SDS011;13104;51.030;4.686;2022-12-29T05:17:37;4.22;;;1.38;;
25123;SDS011;13104;51.030;4.686;2022-12-29T05:20:03;5.97;;;1.25;;
25123;SDS011;13104;51.030;4.686;2022-12-29T05:22:30;8.05;;;1.88;;
25123;SDS011;13104;51.030;4.686;2022-12-29T05:24:56;5.10;;;1.15;;
25123;SDS011;13104;51.030;4.686;2022-12-29T05:27:22;6.00;;;1.35;;
25123;SDS011;13104;51.030;4.686;2022-12-29T05:29:48;8.95;;;1.50;;
25123;SDS011;13104;51.030;4.686;2022-12-29T05:32:15;5.72;;;1.30;;
25123;SDS011;13104;51.030;4.686;2022-12-29T05:34:41;7.57;;;1.58;;
25123;SDS011;13104;51.030;4.686;2022-12-29T05:37:09;7.65;;;1.45;;
25123;SDS011;13104;51.030;4.686;2022-12-29T05:39:35;13.57;;;1.98;;
25123;SDS011;13104;51.030;4.686;2022-12-29T05:42:01;5.30;;;1.52;;
25123;SDS011;13104;51.030;4.686;2022-12-29T05:44:28;6.45;;;1.58;;
25123;SDS011;13104;51.030;4.686;2022-12-29T05:46:54;6.38;;;1.45;;
25123;SDS011;13104;51.030;4.686;2022-12-29T05:49:20;11.43;;;1.48;;
25123;SDS011;13104;51.030;4.686;2022-12-29T05:51:46;10.95;;;1.50;;
25123;SDS011;13104;51.030;4.686;2022-12-29T05:54:12;11.57;;;1.92;;
25123;SDS011;13104;51.030;4.686;2022-12-29T05:56:38;6.82;;;1.58;;
25123;SDS011;13104;51.030;4.686;2022-12-29T05:59:04;7.22;;;1.73;;
25123;SDS011;13104;51.030;4.686;2022-12-29T06:01:30;17.42;;;1.95;;
25123;SDS011;13104;51.030;4.686;2022-12-29T06:03:58;6.40;;;2.03;;
25123;SDS011;13104;51.030;4.686;2022-12-29T06:06:24;8.73;;;1.85;;
25123;SDS011;13104;51.030;4.686;2022-12-29T06:08:50;12.80;;;2.28;;
25123;SDS011;13104;51.030;4.686;2022-12-29T06:11:16;8.60;;;2.20;;
25123;SDS011;13104;51.030;4.686;2022-12-29T06:13:43;12.30;;;2.20;;
25123;SDS011;13104;51.030;4.686;2022-12-29T06:16:09;9.45;;;1.95;;
25123;SDS011;13104;51.030;4.686;2022-12-29T06:18:35;10.48;;;2.50;;
25123;SDS011;13104;51.030;4.686;2022-12-29T06:21:02;8.52;;;3.10;;
25123;SDS011;13104;51.030;4.686;2022-12-29T06:23:28;10.13;;;2.92;;
25123;SDS011;13104;51.030;4.686;2022-12-29T06:25:55;14.90;;;4.15;;
25123;SDS011;13104;51.030;4.686;2022-12-29T06:28:21;14.10;;;4.18;;
25123;SDS011;13104;51.030;4.686;2022-12-29T06:30:47;11.43;;;4.90;;
25123;SDS011;13104;51.030;4.686;2022-12-29T06:33:14;13.13;;;3.20;;
25123;SDS011;13104;51.030;4.686;2022-12-29T06:35:41;7.90;;;1.85;;
25123;SDS011;13104;51.030;4.686;2022-12-29T06:38:08;6.88;;;2.55;;
25123;SDS011;13104;51.030;4.686;2022-12-29T06:40:34;6.93;;;2.58;;
25123;SDS011;13104;51.030;4.686;2022-12-29T06:43:00;8.90;;;1.77;;
25123;SDS011;13104;51.030;4.686;2022-12-29T06:45:27;11.10;;;2.05;;
25123;SDS011;13104;51.030;4.686;2022-12-29T06:47:53;12.38;;;2.17;;
25123;SDS011;13104;51.030;4.686;2022-12-29T06:50:19;10.30;;;2.47;;
25123;SDS011;13104;51.030;4.686;2022-12-29T06:52:46;11.23;;;2.65;;
25123;SDS011;13104;51.030;4.686;2022-12-29T06:55:13;13.85;;;3.08;;
25123;SDS011;13104;51.030;4.686;2022-12-29T06:57:39;11.73;;;2.72;;
25123;SDS011;13104;51.030;4.686;2022-12-29T07:00:05;12.07;;;2.92;;
25123;SDS011;13104;51.030;4.686;2022-12-29T07:02:32;11.20;;;2.38;;
25123;SDS011;13104;51.030;4.686;2022-12-29T07:04:58;10.85;;;2.67;;
25123;SDS011;13104;51.030;4.686;2022-12-29T07:07:24;14.10;;;2.58;;
25123;SDS011;13104;51.030;4.686;2022-12-29T07:09:51;10.70;;;2.67;;
25123;SDS011;13104;51.030;4.686;2022-12-29T07:12:17;10.82;;;2.30;;
25123;SDS011;13104;51.030;4.686;2022-12-29T07:14:43;11.35;;;2.58;;
25123;SDS011;13104;51.030;4.686;2022-12-29T07:17:09;10.18;;;2.05;;
25123;SDS011;13104;51.030;4.686;2022-12-29T07:19:36;17.27;;;3.10;;
25123;SDS011;13104;51.030;4.686;2022-12-29T07:22:02;11.90;;;2.30;;
25123;SDS011;13104;51.030;4.686;2022-12-29T07:24:28;9.45;;;2.60;;
25123;SDS011;13104;51.030;4.686;2022-12-29T07:26:55;9.05;;;2.92;;
25123;SDS011;13104;51.030;4.686;2022-12-29T07:29:21;11.52;;;2.35;;
25123;SDS011;13104;51.030;4.686;2022-12-29T07:31:47;13.05;;;2.38;;
25123;SDS011;13104;51.030;4.686;2022-12-29T07:34:14;10.73;;;2.80;;
25123;SDS011;13104;51.030;4.686;2022-12-29T07:36:40;10.95;;;2.45;;
25123;SDS011;13104;51.030;4.686;2022-12-29T07:39:07;10.57;;;2.88;;
25123;SDS011;13104;51.030;4.686;2022-12-29T07:41:33;12.57;;;2.45;;
25123;SDS011;13104;51.030;4.686;2022-12-29T07:43:59;10.60;;;2.00;;
25123;SDS011;13104;51.030;4.686;2022-12-29T07:46:26;10.50;;;2.20;;
25123;SDS011;13104;51.030;4.686;2022-12-29T07:48:52;12.18;;;2.00;;
25123;SDS011;13104;51.030;4.686;2022-12-29T07:51:19;14.32;;;2.15;;
25123;SDS011;13104;51.030;4.686;2022-12-29T07:53:45;11.02;;;2.05;;
25123;SDS011;13104;51.030;4.686;2022-12-29T07:56:11;9.60;;;1.92;;
25123;SDS011;13104;51.030;4.686;2022-12-29T07:58:37;14.23;;;2.28;;
25123;SDS011;13104;51.030;4.686;2022-12-29T08:01:03;11.55;;;2.15;;
25123;SDS011;13104;51.030;4.686;2022-12-29T08:03:30;13.27;;;2.20;;
25123;SDS011;13104;51.030;4.686;2022-12-29T08:05:56;16.92;;;2.65;;
25123;SDS011;13104;51.030;4.686;2022-12-29T08:08:23;13.65;;;2.53;;
25123;SDS011;13104;51.030;4.686;2022-12-29T08:10:49;13.25;;;2.40;;
25123;SDS011;13104;51.030;4.686;2022-12-29T08:13:15;14.57;;;2.70;;
25123;SDS011;13104;51.030;4.686;2022-12-29T08:15:41;13.73;;;2.20;;
25123;SDS011;13104;51.030;4.686;2022-12-29T08:18:07;17.10;;;2.88;;
25123;SDS011;13104;51.030;4.686;2022-12-29T08:20:34;10.35;;;2.13;;
25123;SDS011;13104;51.030;4.686;2022-12-29T08:23:00;18.00;;;2.95;;
25123;SDS011;13104;51.030;4.686;2022-12-29T08:25:27;14.05;;;2.17;;
25123;SDS011;13104;51.030;4.686;2022-12-29T08:27:53;17.92;;;3.10;;
25123;SDS011;13104;51.030;4.686;2022-12-29T08:30:19;16.17;;;2.22;;
25123;SDS011;13104;51.030;4.686;2022-12-29T08:32:45;15.15;;;2.90;;
25123;SDS011;13104;51.030;4.686;2022-12-29T08:35:11;16.67;;;2.72;;
25123;SDS011;13104;51.030;4.686;2022-12-29T08:37:38;9.00;;;2.30;;
25123;SDS011;13104;51.030;4.686;2022-12-29T08:40:05;11.43;;;2.03;;
25123;SDS011;13104;51.030;4.686;2022-12-29T08:42:31;9.25;;;2.00;;
25123;SDS011;13104;51.030;4.686;2022-12-29T08:44:58;13.30;;;2.35;;
25123;SDS011;13104;51.030;4.686;2022-12-29T08:47:24;13.98;;;1.95;;
25123;SDS011;13104;51.030;4.686;2022-12-29T08:49:51;11.25;;;2.20;;
25123;SDS011;13104;51.030;4.686;2022-12-29T08:52:18;11.85;;;2.00;;
25123;SDS011;13104;51.030;4.686;2022-12-29T08:54:44;20.63;;;2.40;;
25123;SDS011;13104;51.030;4.686;2022-12-29T08:57:10;11.50;;;2.00;;
25123;SDS011;13104;51.030;4.686;2022-12-29T08:59:37;10.50;;;2.45;;
25123;SDS011;13104;51.030;4.686;2022-12-29T09:02:03;16.42;;;2.63;;
25123;SDS011;13104;51.030;4.686;2022-12-29T09:04:30;11.98;;;2.88;;
25123;SDS011;13104;51.030;4.686;2022-12-29T09:06:56;15.90;;;3.65;;
25123;SDS011;13104;51.030;4.686;2022-12-29T09:09:22;14.55;;;2.40;;
25123;SDS011;13104;51.030;4.686;2022-12-29T09:11:48;18.52;;;2.53;;
25123;SDS011;13104;51.030;4.686;2022-12-29T09:14:14;15.20;;;2.83;;
25123;SDS011;13104;51.030;4.686;2022-12-29T09:16:41;10.20;;;2.97;;
25123;SDS011;13104;51.030;4.686;2022-12-29T09:19:25;15.02;;;2.88;;
25123;SDS011;13104;51.030;4.686;2022-12-29T09:21:52;15.25;;;2.63;;
25123;SDS011;13104;51.030;4.686;2022-12-29T09:24:18;10.80;;;2.45;;
25123;SDS011;13104;51.030;4.686;2022-12-29T09:26:44;14.57;;;2.47;;
25123;SDS011;13104;51.030;4.686;2022-12-29T09:29:10;11.63;;;2.40;;
25123;SDS011;13104;51.030;4.686;2022-12-29T09:31:36;12.43;;;2.63;;
25123;SDS011;13104;51.030;4.686;2022-12-29T09:34:03;11.80;;;2.25;;
25123;SDS011;13104;51.030;4.686;2022-12-29T09:36:29;14.93;;;3.70;;
25123;SDS011;13104;51.030;4.686;2022-12-29T09:38:55;13.52;;;2.78;;
25123;SDS011;13104;51.030;4.686;2022-12-29T09:41:43;18.35;;;2.75;;
25123;SDS011;13104;51.030;4.686;2022-12-29T09:44:19;14.48;;;2.80;;
25123;SDS011;13104;51.030;4.686;2022-12-29T09:46:50;17.63;;;3.65;;
25123;SDS011;13104;51.030;4.686;2022-12-29T09:49:21;12.25;;;2.83;;
25123;SDS011;13104;51.030;4.686;2022-12-29T09:51:57;16.13;;;2.75;;
25123;SDS011;13104;51.030;4.686;2022-12-29T09:56:54;19.88;;;3.50;;
25123;SDS011;13104;51.030;4.686;2022-12-29T09:59:22;15.63;;;3.80;;
25123;SDS011;13104;51.030;4.686;2022-12-29T10:01:57;10.63;;;2.80;;
25123;SDS011;13104;51.030;4.686;2022-12-29T10:04:26;13.43;;;3.10;;
25123;SDS011;13104;51.030;4.686;2022-12-29T10:09:50;16.83;;;2.83;;
25123;SDS011;13104;51.030;4.686;2022-12-29T10:15:02;13.55;;;2.53;;
25123;SDS011;13104;51.030;4.686;2022-12-29T10:23:01;18.13;;;3.00;;
25123;SDS011;13104;51.030;4.686;2022-12-29T10:25:31;12.85;;;2.55;;
25123;SDS011;13104;51.030;4.686;2022-12-29T10:27:59;12.45;;;3.25;;
25123;SDS011;13104;51.030;4.686;2022-12-29T10:30:26;20.40;;;3.03;;
25123;SDS011;13104;51.030;4.686;2022-12-29T10:32:54;17.27;;;2.95;;
25123;SDS011;13104;51.030;4.686;2022-12-29T10:35:22;15.98;;;2.88;;
25123;SDS011;13104;51.030;4.686;2022-12-29T10:37:57;17.15;;;2.90;;
25123;SDS011;13104;51.030;4.686;2022-12-29T10:40:25;15.85;;;2.80;;
25123;SDS011;13104;51.030;4.686;2022-12-29T10:42:53;15.00;;;2.85;;
25123;SDS011;13104;51.030;4.686;2022-12-29T10:45:20;15.73;;;2.78;;
25123;SDS011;13104;51.030;4.686;2022-12-29T10:47:52;17.20;;;2.58;;
25123;SDS011;13104;51.030;4.686;2022-12-29T10:50:19;14.75;;;2.42;;
25123;SDS011;13104;51.030;4.686;2022-12-29T10:52:45;17.42;;;2.78;;
25123;SDS011;13104;51.030;4.686;2022-12-29T10:55:13;21.23;;;2.83;;
25123;SDS011;13104;51.030;4.686;2022-12-29T10:57:42;19.13;;;3.28;;
25123;SDS011;13104;51.030;4.686;2022-12-29T11:00:27;18.20;;;2.95;;
25123;SDS011;13104;51.030;4.686;2022-12-29T11:05:34;21.92;;;3.30;;
25123;SDS011;13104;51.030;4.686;2022-12-29T11:08:04;11.88;;;2.30;;
25123;SDS011;13104;51.030;4.686;2022-12-29T11:10:38;10.80;;;2.33;;
25123;SDS011;13104;51.030;4.686;2022-12-29T11:13:13;10.38;;;2.45;;
25123;SDS011;13104;51.030;4.686;2022-12-29T11:15:41;16.13;;;3.22;;
25123;SDS011;13104;51.030;4.686;2022-12-29T11:18:21;10.52;;;2.35;;
25123;SDS011;13104;51.030;4.686;2022-12-29T11:20:48;18.73;;;3.17;;
25123;SDS011;13104;51.030;4.686;2022-12-29T11:23:22;16.77;;;2.97;;
25123;SDS011;13104;51.030;4.686;2022-12-29T11:26:06;10.88;;;2.35;;
25123;SDS011;13104;51.030;4.686;2022-12-29T11:28:32;18.75;;;3.40;;
25123;SDS011;13104;51.030;4.686;2022-12-29T11:30:59;14.57;;;2.97;;
25123;SDS011;13104;51.030;4.686;2022-12-29T11:33:30;14.30;;;2.47;;
25123;SDS011;13104;51.030;4.686;2022-12-29T11:35:57;20.75;;;2.88;;
25123;SDS011;13104;51.030;4.686;2022-12-29T11:38:30;12.90;;;2.60;;
25123;SDS011;13104;51.030;4.686;2022-12-29T11:40:58;9.52;;;2.03;;
25123;SDS011;13104;51.030;4.686;2022-12-29T11:43:28;15.18;;;3.22;;
25123;SDS011;13104;51.030;4.686;2022-12-29T11:45:58;17.02;;;3.28;;
25123;SDS011;13104;51.030;4.686;2022-12-29T11:48:24;18.02;;;3.70;;
25123;SDS011;13104;51.030;4.686;2022-12-29T11:50:55;15.77;;;2.88;;
25123;SDS011;13104;51.030;4.686;2022-12-29T11:53:33;18.30;;;2.60;;
25123;SDS011;13104;51.030;4.686;2022-12-29T11:56:05;13.68;;;2.78;;
25123;SDS011;13104;51.030;4.686;2022-12-29T11:58:32;21.17;;;3.40;;
25123;SDS011;13104;51.030;4.686;2022-12-29T12:01:00;17.30;;;4.32;;
25123;SDS011;13104;51.030;4.686;2022-12-29T12:03:28;15.30;;;4.47;;
25123;SDS011;13104;51.030;4.686;2022-12-29T12:05:57;21.20;;;3.97;;
25123;SDS011;13104;51.030;4.686;2022-12-29T12:08:31;18.70;;;4.60;;
25123;SDS011;13104;51.030;4.686;2022-12-29T12:11:04;16.85;;;4.20;;
25123;SDS011;13104;51.030;4.686;2022-12-29T12:16:06;14.05;;;4.20;;
25123;SDS011;13104;51.030;4.686;2022-12-29T12:18:37;17.33;;;5.10;;
25123;SDS011;13104;51.030;4.686;2022-12-29T12:21:10;19.17;;;4.90;;
25123;SDS011;13104;51.030;4.686;2022-12-29T12:26:30;13.70;;;4.50;;
25123;SDS011;13104;51.030;4.686;2022-12-29T12:31:33;16.58;;;5.68;;
25123;SDS011;13104;51.030;4.686;2022-12-29T12:34:05;22.00;;;5.95;;
25123;SDS011;13104;51.030;4.686;2022-12-29T12:36:48;20.75;;;6.00;;
25123;SDS011;13104;51.030;4.686;2022-12-29T12:41:51;22.20;;;5.57;;
25123;SDS011;13104;51.030;4.686;2022-12-29T12:44:32;17.25;;;5.55;;
25123;SDS011;13104;51.030;4.686;2022-12-29T12:57:57;19.83;;;4.57;;
25123;SDS011;13104;51.030;4.686;2022-12-29T13:00:26;10.98;;;2.67;;
25123;SDS011;13104;51.030;4.686;2022-12-29T13:05:40;15.43;;;4.65;;
25123;SDS011;13104;51.030;4.686;2022-12-29T13:16:12;15.55;;;4.70;;
25123;SDS011;13104;51.030;4.686;2022-12-29T13:21:30;14.40;;;4.18;;
25123;SDS011;13104;51.030;4.686;2022-12-29T13:29:20;12.23;;;4.43;;
25123;SDS011;13104;51.030;4.686;2022-12-29T13:31:50;12.77;;;3.60;;
25123;SDS011;13104;51.030;4.686;2022-12-29T13:36:45;16.63;;;4.25;;
25123;SDS011;13104;51.030;4.686;2022-12-29T13:39:21;9.13;;;3.53;;
25123;SDS011;13104;51.030;4.686;2022-12-29T13:41:51;15.65;;;4.05;;
25123;SDS011;13104;51.030;4.686;2022-12-29T13:44:23;14.98;;;5.18;;
25123;SDS011;13104;51.030;4.686;2022-12-29T13:46:50;17.08;;;4.18;;
25123;SDS011;13104;51.030;4.686;2022-12-29T13:49:18;13.50;;;3.63;;
25123;SDS011;13104;51.030;4.686;2022-12-29T13:51:48;15.23;;;3.17;;
25123;SDS011;13104;51.030;4.686;2022-12-29T13:54:35;11.70;;;3.38;;
25123;SDS011;13104;51.030;4.686;2022-12-29T13:57:05;13.38;;;3.10;;
25123;SDS011;13104;51.030;4.686;2022-12-29T13:59:52;12.40;;;2.83;;
25123;SDS011;13104;51.030;4.686;2022-12-29T14:02:24;10.57;;;2.45;;
25123;SDS011;13104;51.030;4.686;2022-12-29T14:04:56;12.48;;;2.25;;
25123;SDS011;13104;51.030;4.686;2022-12-29T14:07:23;10.02;;;2.65;;
25123;SDS011;13104;51.030;4.686;2022-12-29T14:09:56;10.65;;;2.35;;
25123;SDS011;13104;51.030;4.686;2022-12-29T14:15:20;14.70;;;3.08;;
25123;SDS011;13104;51.030;4.686;2022-12-29T14:17:41;14.65;;;3.05;;
25123;SDS011;13104;51.030;4.686;2022-12-29T14:20:21;15.27;;;3.10;;
25123;SDS011;13104;51.030;4.686;2022-12-29T14:28:16;23.42;;;3.70;;
25123;SDS011;13104;51.030;4.686;2022-12-29T14:30:49;11.07;;;2.95;;
25123;SDS011;13104;51.030;4.686;2022-12-29T14:33:16;16.53;;;3.07;;
25123;SDS011;13104;51.030;4.686;2022-12-29T14:35:44;17.95;;;3.17;;
25123;SDS011;13104;51.030;4.686;2022-12-29T14:38:47;18.15;;;4.82;;
25123;SDS011;13104;51.030;4.686;2022-12-29T14:49:30;7.80;;;2.97;;
25123;SDS011;13104;51.030;4.686;2022-12-29T14:54:43;8.85;;;1.40;;
25123;SDS011;13104;51.030;4.686;2022-12-29T14:57:18;5.32;;;1.63;;
25123;SDS011;13104;51.030;4.686;2022-12-29T14:59:45;9.18;;;1.60;;
25123;SDS011;13104;51.030;4.686;2022-12-29T15:02:13;4.30;;;1.50;;
25123;SDS011;13104;51.030;4.686;2022-12-29T15:04:41;6.78;;;1.23;;
25123;SDS011;13104;51.030;4.686;2022-12-29T15:07:09;4.82;;;1.30;;
25123;SDS011;13104;51.030;4.686;2022-12-29T15:09:50;3.20;;;1.25;;
25123;SDS011;13104;51.030;4.686;2022-12-29T15:17:48;3.30;;;1.25;;
25123;SDS011;13104;51.030;4.686;2022-12-29T15:20:19;7.03;;;1.65;;
25123;SDS011;13104;51.030;4.686;2022-12-29T15:22:56;6.80;;;1.33;;
25123;SDS011;13104;51.030;4.686;2022-12-29T15:25:23;8.10;;;1.52;;
25123;SDS011;13104;51.030;4.686;2022-12-29T15:27:51;6.32;;;1.42;;
25123;SDS011;13104;51.030;4.686;2022-12-29T15:30:18;8.82;;;1.52;;
25123;SDS011;13104;51.030;4.686;2022-12-29T15:32:45;6.13;;;1.55;;
25123;SDS011;13104;51.030;4.686;2022-12-29T15:37:53;14.40;;;2.13;;
25123;SDS011;13104;51.030;4.686;2022-12-29T15:40:32;7.93;;;2.00;;
25123;SDS011;13104;51.030;4.686;2022-12-29T15:45:36;15.35;;;2.58;;
25123;SDS011;13104;51.030;4.686;2022-12-29T15:48:03;15.70;;;5.53;;
25123;SDS011;13104;51.030;4.686;2022-12-29T15:50:36;16.27;;;3.15;;
25123;SDS011;13104;51.030;4.686;2022-12-29T15:53:03;42.28;;;27.65;;
25123;SDS011;13104;51.030;4.686;2022-12-29T15:55:36;9.95;;;2.97;;
25123;SDS011;13104;51.030;4.686;2022-12-29T15:58:04;15.68;;;5.50;;
25123;SDS011;13104;51.030;4.686;2022-12-29T16:00:33;18.65;;;3.47;;
25123;SDS011;13104;51.030;4.686;2022-12-29T16:03:00;25.25;;;7.97;;
25123;SDS011;13104;51.030;4.686;2022-12-29T16:05:36;24.60;;;9.02;;
25123;SDS011;13104;51.030;4.686;2022-12-29T16:08:03;20.30;;;9.25;;
25123;SDS011;13104;51.030;4.686;2022-12-29T16:10:37;17.00;;;7.75;;
25123;SDS011;13104;51.030;4.686;2022-12-29T16:13:26;15.95;;;4.47;;
25123;SDS011;13104;51.030;4.686;2022-12-29T16:15:52;17.80;;;4.22;;
25123;SDS011;13104;51.030;4.686;2022-12-29T16:18:24;21.20;;;4.75;;
25123;SDS011;13104;51.030;4.686;2022-12-29T16:20:51;22.98;;;5.82;;
25123;SDS011;13104;51.030;4.686;2022-12-29T16:23:21;22.50;;;7.10;;
25123;SDS011;13104;51.030;4.686;2022-12-29T16:25:48;12.70;;;3.58;;
25123;SDS011;13104;51.030;4.686;2022-12-29T16:28:18;18.95;;;6.57;;
25123;SDS011;13104;51.030;4.686;2022-12-29T16:30:45;12.05;;;3.65;;
25123;SDS011;13104;51.030;4.686;2022-12-29T16:35:56;24.73;;;10.73;;
25123;SDS011;13104;51.030;4.686;2022-12-29T16:38:22;35.22;;;15.40;;
25123;SDS011;13104;51.030;4.686;2022-12-29T16:43:34;17.52;;;5.40;;
25123;SDS011;13104;51.030;4.686;2022-12-29T16:46:18;21.35;;;4.57;;
25123;SDS011;13104;51.030;4.686;2022-12-29T16:48:45;15.98;;;4.38;;
25123;SDS011;13104;51.030;4.686;2022-12-29T16:51:13;26.77;;;11.30;;
25123;SDS011;13104;51.030;4.686;2022-12-29T16:53:40;24.92;;;6.15;;